Huvudsida
METAR-TAF:

METAR-TAF

Flygplatser :

Bagdads internationella flygplats

Bagdad, Irak

latitud: 33-15-45N, longitud: 44-14-04E, höjd: 35 m

Aktuellt väderrapport

Denna rapport gjordes för 1 timme och 52 minuter sedan, klockan 00:00 UTC
Vind 2 kt varierande vindriktning
Temperatur 28°C
Fuktighet 35%
Tryck 998 hPa
Sikt 10 km eller mer
Inga moln under 1 500 m eller inga cumulonimbus

METAR: ORBI 190000Z VRB02KT CAVOK 28/11 Q0998 NOSIG

Tid: 04:52 (01:52 UTC)

Väderprognos

Denna rapport gjordes för 9 timmar och 52 minuter sedan, klockan 16:00 UTC
Prognos gäller från 18 kl. 18 UTC till 19 kl. 18 UTC
Vind 12 kt från väst/nordväst
Sikt: 7000 m

TAF: ORBI 181600Z 1818/1918 30012KT 7000 NSC

Aktuella väderrapporter och prognoser från 4000 flygplatser (METAR- och TAF-rapporter).

De tillgängliga stationerna syns som gula och röda prickar på kartan.

För musen över prickarna för att se namnen på stationerna.

Klicka sedan för att få väderrapporter och prognoser.

För att ändra kartan: Klicka på de gröna knapparna med ett svart kors på för att zooma in; den gröna knappen med ett streck på för att zooma ut; eller på de gröna pilarna för angränsande kartor.


METAR-TAF: